createdAt,value
2018-09-22T00:00:54.634Z,16.00
2018-09-22T00:03:23.106Z,16.00
2018-09-22T00:05:51.566Z,16.10
2018-09-22T00:08:20.036Z,16.10
2018-09-22T00:10:48.571Z,16.20
2018-09-22T00:13:17.043Z,16.20
2018-09-22T00:15:57.565Z,16.20
2018-09-22T00:18:26.018Z,16.20
2018-09-22T00:20:54.499Z,16.30
2018-09-22T00:23:22.982Z,16.30
2018-09-22T00:25:51.457Z,16.30
2018-09-22T00:28:19.926Z,16.30
2018-09-22T00:30:48.393Z,16.40
2018-09-22T00:33:16.877Z,16.40
2018-09-22T00:35:45.336Z,16.40
2018-09-22T00:38:14.843Z,16.40
2018-09-22T00:40:43.312Z,16.40
2018-09-22T00:43:11.787Z,16.40
2018-09-22T00:45:40.268Z,16.50
2018-09-22T00:48:08.748Z,16.50
2018-09-22T00:50:37.211Z,16.50
2018-09-22T00:53:05.938Z,16.50
2018-09-22T00:55:34.457Z,16.50
2018-09-22T00:58:02.934Z,16.50
2018-09-22T01:00:31.527Z,16.60
2018-09-22T01:02:59.998Z,16.60
2018-09-22T01:05:28.480Z,16.70
2018-09-22T01:07:56.943Z,16.70
2018-09-22T01:10:25.444Z,16.70
2018-09-22T01:12:53.943Z,16.70
2018-09-22T01:15:22.427Z,16.70
2018-09-22T01:17:50.907Z,16.70
2018-09-22T01:20:19.460Z,16.70
2018-09-22T01:22:47.921Z,16.70
2018-09-22T01:25:16.441Z,16.70
2018-09-22T01:27:44.912Z,16.70
2018-09-22T01:30:13.430Z,16.70
2018-09-22T01:32:41.917Z,16.70
2018-09-22T01:35:10.518Z,16.70
2018-09-22T01:37:39.006Z,16.80
2018-09-22T01:40:07.487Z,16.70
2018-09-22T01:42:35.942Z,16.70
2018-09-22T01:45:04.475Z,16.70
2018-09-22T01:47:32.970Z,16.70
2018-09-22T01:50:01.455Z,16.70
2018-09-22T01:52:29.977Z,16.60
2018-09-22T01:54:58.400Z,16.60
2018-09-22T01:57:26.874Z,16.60
2018-09-22T01:59:55.373Z,16.60
2018-09-22T02:02:23.838Z,16.60
2018-09-22T02:04:52.294Z,16.60
2018-09-22T02:07:21.121Z,16.60
2018-09-22T02:09:49.591Z,16.60
2018-09-22T02:12:18.074Z,16.60
2018-09-22T02:14:46.568Z,16.60
2018-09-22T02:17:15.039Z,16.60
2018-09-22T02:19:43.499Z,16.60
2018-09-22T02:22:11.957Z,16.60
2018-09-22T02:24:40.432Z,16.70
2018-09-22T02:27:08.967Z,16.70
2018-09-22T02:29:37.435Z,16.70
2018-09-22T02:32:05.970Z,16.80
2018-09-22T02:34:34.517Z,16.90
2018-09-22T02:37:03.367Z,17.00
2018-09-22T02:39:31.851Z,17.10
2018-09-22T02:42:00.338Z,17.30
2018-09-22T02:44:28.802Z,17.90
2018-09-22T02:46:57.275Z,17.90
2018-09-22T02:49:25.734Z,17.80
2018-09-22T02:51:54.196Z,17.50
2018-09-22T02:54:22.658Z,17.30
2018-09-22T02:56:51.157Z,17.30
2018-09-22T02:59:19.626Z,17.10
2018-09-22T03:01:48.083Z,16.80
2018-09-22T03:04:16.534Z,16.80
2018-09-22T03:06:45.095Z,16.60
2018-09-22T03:09:13.524Z,16.40
2018-09-22T03:11:41.995Z,16.30
2018-09-22T03:14:10.557Z,16.00
2018-09-22T03:16:39.394Z,16.00
2018-09-22T03:19:07.866Z,15.80
2018-09-22T03:21:36.327Z,15.70
2018-09-22T03:24:04.834Z,15.60
2018-09-22T03:26:33.400Z,15.60
2018-09-22T03:29:01.898Z,15.40
2018-09-22T03:31:30.357Z,15.30
2018-09-22T03:33:58.822Z,15.20
2018-09-22T03:36:27.278Z,15.10
2018-09-22T03:38:55.744Z,15.10
2018-09-22T03:41:24.203Z,15.00
2018-09-22T03:43:52.654Z,15.00
2018-09-22T03:46:21.138Z,14.90
2018-09-22T03:48:49.586Z,14.90
2018-09-22T03:51:18.059Z,14.80
2018-09-22T03:53:46.513Z,14.80
2018-09-22T03:56:14.982Z,14.70
2018-09-22T03:58:43.552Z,14.60
2018-09-22T04:01:12.062Z,14.60
2018-09-22T04:03:40.525Z,14.60
2018-09-22T04:06:08.993Z,14.70
2018-09-22T04:08:37.474Z,14.60
2018-09-22T04:11:05.935Z,14.60
2018-09-22T04:13:34.387Z,14.70
2018-09-22T04:16:02.867Z,14.80
2018-09-22T04:18:31.411Z,14.80
2018-09-22T04:20:59.924Z,14.70
2018-09-22T04:23:28.391Z,14.60
2018-09-22T04:25:56.851Z,14.50
2018-09-22T04:28:25.315Z,14.40
2018-09-22T04:30:53.781Z,14.20
2018-09-22T04:33:22.262Z,14.10
2018-09-22T04:35:50.847Z,14.30
2018-09-22T04:38:19.692Z,14.10
2018-09-22T04:40:48.159Z,14.20
2018-09-22T04:43:16.650Z,14.10
2018-09-22T04:45:45.103Z,14.10
2018-09-22T04:48:13.583Z,14.00
2018-09-22T04:50:42.047Z,14.00
2018-09-22T04:53:10.498Z,14.00
2018-09-22T04:55:38.950Z,13.90
2018-09-22T04:58:07.418Z,13.90
2018-09-22T05:00:35.888Z,14.00
2018-09-22T05:03:04.362Z,13.80
2018-09-22T05:05:32.931Z,13.80
2018-09-22T05:08:01.403Z,13.90
2018-09-22T05:10:29.866Z,13.80
2018-09-22T05:12:58.320Z,13.60
2018-09-22T05:15:26.791Z,13.40
2018-09-22T05:17:55.263Z,13.40
2018-09-22T05:20:23.735Z,13.30
2018-09-22T05:22:52.202Z,13.20
2018-09-22T05:25:20.680Z,13.20
2018-09-22T05:27:49.154Z,13.20
2018-09-22T05:30:17.615Z,13.20
2018-09-22T05:32:46.082Z,13.20
2018-09-22T05:35:14.571Z,13.10
2018-09-22T05:37:43.032Z,12.90
2018-09-22T05:40:11.620Z,12.80
2018-09-22T05:42:40.071Z,12.60
2018-09-22T05:45:08.807Z,12.70
2018-09-22T05:47:37.275Z,12.60
2018-09-22T05:50:06.004Z,12.70
2018-09-22T05:52:34.463Z,12.60
2018-09-22T05:55:03.050Z,12.50
2018-09-22T05:57:31.555Z,12.50
2018-09-22T06:00:00.063Z,12.50
2018-09-22T06:02:28.539Z,12.50
2018-09-22T06:04:57.051Z,12.40
2018-09-22T06:07:25.526Z,12.30
2018-09-22T06:09:53.979Z,12.40
2018-09-22T06:12:22.442Z,12.40
2018-09-22T06:14:50.918Z,12.40
2018-09-22T06:17:19.382Z,12.30
2018-09-22T06:19:47.858Z,12.40
2018-09-22T06:22:16.319Z,12.40
2018-09-22T06:24:44.799Z,12.40
2018-09-22T06:27:13.267Z,12.20
2018-09-22T06:29:41.760Z,12.00
2018-09-22T06:32:11.409Z,12.00
2018-09-22T06:34:39.871Z,12.00
2018-09-22T06:37:08.323Z,12.00
2018-09-22T06:39:36.786Z,12.00
2018-09-22T06:42:05.267Z,12.10
2018-09-22T06:44:33.771Z,12.20
2018-09-22T06:47:02.245Z,12.20
2018-09-22T06:49:30.764Z,12.10
2018-09-22T06:51:59.502Z,12.10
2018-09-22T06:54:27.963Z,12.10
2018-09-22T06:56:56.414Z,12.10
2018-09-22T06:59:24.862Z,12.10
2018-09-22T07:01:53.343Z,12.10
2018-09-22T07:04:21.850Z,12.00
2018-09-22T07:06:50.296Z,12.00
2018-09-22T07:09:18.780Z,12.00
2018-09-22T07:11:47.243Z,12.00
2018-09-22T07:14:15.748Z,12.10
2018-09-22T07:16:44.559Z,12.10
2018-09-22T07:19:13.033Z,12.10
2018-09-22T07:21:46.795Z,12.10
2018-09-22T07:24:15.275Z,12.10
2018-09-22T07:26:43.738Z,12.10
2018-09-22T07:29:12.300Z,12.20
2018-09-22T07:31:40.787Z,12.20
2018-09-22T07:34:09.286Z,12.20
2018-09-22T07:36:37.757Z,12.30
2018-09-22T07:39:08.762Z,12.30
2018-09-22T07:41:37.728Z,12.30
2018-09-22T07:44:06.259Z,12.30
2018-09-22T07:46:34.731Z,12.30
2018-09-22T07:49:03.562Z,12.30
2018-09-22T07:51:32.447Z,12.30
2018-09-22T07:54:00.924Z,12.20
2018-09-22T07:56:29.398Z,12.20
2018-09-22T07:58:57.882Z,12.30
2018-09-22T08:01:26.374Z,12.30
2018-09-22T08:03:54.837Z,12.20
2018-09-22T08:06:23.526Z,12.20
2018-09-22T08:08:52.314Z,12.10
2018-09-22T08:11:20.815Z,12.10
2018-09-22T08:13:49.340Z,12.10
2018-09-22T08:16:17.799Z,12.00
2018-09-22T08:18:46.280Z,12.00
2018-09-22T08:21:14.718Z,11.90
2018-09-22T08:23:43.177Z,11.90
2018-09-22T08:26:11.635Z,11.80
2018-09-22T08:28:40.105Z,11.80
2018-09-22T08:31:08.594Z,11.80
2018-09-22T08:33:37.053Z,11.70
2018-09-22T08:36:05.618Z,11.70
2018-09-22T08:38:34.055Z,11.70
2018-09-22T08:41:02.517Z,11.60
2018-09-22T08:43:30.986Z,11.50
2018-09-22T08:45:59.458Z,11.50
2018-09-22T08:48:27.922Z,11.50
2018-09-22T08:50:56.438Z,11.50
2018-09-22T08:53:24.870Z,11.40
2018-09-22T08:55:53.339Z,11.40
2018-09-22T08:58:21.792Z,11.40
2018-09-22T09:00:50.243Z,11.40
2018-09-22T09:03:18.711Z,11.40
2018-09-22T09:05:47.238Z,11.40
2018-09-22T09:08:15.647Z,11.50
2018-09-22T09:10:44.107Z,11.50
2018-09-22T09:13:12.607Z,11.50
2018-09-22T09:15:41.094Z,11.60
2018-09-22T09:18:09.658Z,11.50
2018-09-22T09:20:38.382Z,11.40
2018-09-22T09:23:06.892Z,11.50
2018-09-22T09:25:35.355Z,11.50
2018-09-22T09:28:03.817Z,11.40
2018-09-22T09:30:32.382Z,11.60
2018-09-22T09:33:00.846Z,11.70
2018-09-22T09:35:29.307Z,11.70
2018-09-22T09:37:57.818Z,11.80
2018-09-22T09:40:26.243Z,11.80
2018-09-22T09:42:54.702Z,11.90
2018-09-22T09:45:23.172Z,12.00
2018-09-22T09:47:51.631Z,12.00
2018-09-22T09:50:20.095Z,12.00
2018-09-22T09:52:48.570Z,12.20
2018-09-22T09:55:17.099Z,12.10
2018-09-22T09:57:45.563Z,12.00
2018-09-22T10:00:14.089Z,12.00
2018-09-22T10:02:42.562Z,12.00
2018-09-22T10:05:11.139Z,11.90
2018-09-22T10:07:39.617Z,11.90
2018-09-22T10:10:08.094Z,11.90
2018-09-22T10:12:36.570Z,11.90
2018-09-22T10:15:05.262Z,11.90
2018-09-22T10:17:33.742Z,11.90
2018-09-22T10:20:02.216Z,12.00
2018-09-22T10:22:30.686Z,12.00
2018-09-22T10:24:59.170Z,12.00
2018-09-22T10:27:27.639Z,12.00
2018-09-22T10:29:56.110Z,12.00
2018-09-22T10:32:24.564Z,12.10
2018-09-22T10:34:53.034Z,12.10
2018-09-22T10:37:21.516Z,12.20
2018-09-22T10:39:50.081Z,12.20
2018-09-22T10:42:18.556Z,12.20
2018-09-22T10:44:47.006Z,12.20
2018-09-22T10:47:15.467Z,12.20
2018-09-22T10:49:43.911Z,12.10
2018-09-22T10:52:12.366Z,12.30
2018-09-22T10:54:40.834Z,12.20
2018-09-22T10:57:09.305Z,12.30
2018-09-22T10:59:37.775Z,12.30
2018-09-22T11:02:06.470Z,12.30
2018-09-22T11:04:34.952Z,12.20
2018-09-22T11:07:03.686Z,12.20
2018-09-22T11:09:32.184Z,12.20
2018-09-22T11:12:00.642Z,12.10
2018-09-22T11:14:29.107Z,12.10
2018-09-22T11:16:57.567Z,12.20
2018-09-22T11:19:26.030Z,12.20
2018-09-22T11:21:54.479Z,12.00
2018-09-22T11:24:22.967Z,12.00
2018-09-22T11:26:51.438Z,11.90
2018-09-22T11:29:19.891Z,12.00
2018-09-22T11:31:48.379Z,12.00
2018-09-22T11:34:16.843Z,12.00
2018-09-22T11:36:45.309Z,12.10
2018-09-22T11:39:13.807Z,12.10
2018-09-22T11:41:42.278Z,12.10
2018-09-22T11:44:10.792Z,12.10
2018-09-22T11:46:39.262Z,12.20
2018-09-22T11:49:07.718Z,12.20
2018-09-22T11:51:36.174Z,12.20
2018-09-22T11:54:04.646Z,12.20
2018-09-22T11:56:33.220Z,12.30
2018-09-22T11:59:01.727Z,12.20
2018-09-22T12:01:30.303Z,12.30
2018-09-22T12:03:58.772Z,12.20
2018-09-22T12:06:27.300Z,12.00
2018-09-22T12:08:55.703Z,12.00
2018-09-22T12:11:24.187Z,12.00
2018-09-22T12:13:52.679Z,12.10
2018-09-22T12:16:21.137Z,12.00
2018-09-22T12:18:49.595Z,12.00
2018-09-22T12:21:18.088Z,12.00
2018-09-22T12:23:46.547Z,12.10
2018-09-22T12:26:15.010Z,12.10
2018-09-22T12:28:43.466Z,12.20
2018-09-22T12:31:11.923Z,12.20
2018-09-22T12:33:40.404Z,12.30
2018-09-22T12:36:08.903Z,12.30
2018-09-22T12:38:37.352Z,12.40
2018-09-22T12:41:05.862Z,12.30
2018-09-22T12:43:34.318Z,12.10
2018-09-22T12:46:02.802Z,12.10
2018-09-22T12:48:31.263Z,12.20
2018-09-22T12:50:59.710Z,12.20
2018-09-22T12:53:28.181Z,12.20
2018-09-22T12:55:56.659Z,12.30
2018-09-22T12:58:25.119Z,12.20
2018-09-22T13:00:53.596Z,12.20
2018-09-22T13:03:22.070Z,12.20
2018-09-22T13:05:50.546Z,12.10
2018-09-22T13:08:19.011Z,12.10
2018-09-22T13:10:47.479Z,12.20
2018-09-22T13:13:15.994Z,12.00
2018-09-22T13:15:44.560Z,12.10
2018-09-22T13:18:13.047Z,12.10
2018-09-22T13:20:41.734Z,12.10
2018-09-22T13:23:10.213Z,12.10
2018-09-22T13:25:38.685Z,12.10
2018-09-22T13:28:07.141Z,12.20
2018-09-22T13:30:35.617Z,12.10
2018-09-22T13:33:04.078Z,12.20
2018-09-22T13:35:32.676Z,12.10
2018-09-22T13:38:01.150Z,12.10
2018-09-22T13:40:29.618Z,12.10
2018-09-22T13:42:58.092Z,12.20
2018-09-22T13:45:26.614Z,12.20
2018-09-22T13:47:55.367Z,12.10
2018-09-22T13:50:23.836Z,12.10
2018-09-22T13:52:52.299Z,12.10
2018-09-22T13:55:20.762Z,12.10
2018-09-22T13:57:49.256Z,12.10
2018-09-22T14:00:17.729Z,12.10
2018-09-22T14:02:46.200Z,12.10
2018-09-22T14:05:14.691Z,12.00
2018-09-22T14:07:43.214Z,12.00
2018-09-22T14:10:11.845Z,11.90
2018-09-22T14:12:40.242Z,12.00
2018-09-22T14:15:08.692Z,12.00
2018-09-22T14:17:37.171Z,12.10
2018-09-22T14:20:05.862Z,12.00
2018-09-22T14:22:34.316Z,12.10
2018-09-22T14:25:03.072Z,12.20
2018-09-22T14:27:31.618Z,12.20
2018-09-22T14:30:00.103Z,12.20
2018-09-22T14:32:28.566Z,12.20
2018-09-22T14:34:57.014Z,12.30
2018-09-22T14:37:25.480Z,12.20
2018-09-22T14:39:54.163Z,12.30
2018-09-22T14:42:22.623Z,12.30
2018-09-22T14:44:51.070Z,12.30
2018-09-22T14:47:19.527Z,12.30
2018-09-22T14:49:47.982Z,12.40
2018-09-22T14:52:16.450Z,12.40
2018-09-22T14:54:44.906Z,12.30
2018-09-22T14:57:13.364Z,12.30
2018-09-22T14:59:41.859Z,12.30
2018-09-22T15:02:10.314Z,12.30
2018-09-22T15:04:38.781Z,12.30
2018-09-22T15:07:07.245Z,12.20
2018-09-22T15:09:35.723Z,12.20
2018-09-22T15:12:04.214Z,12.20
2018-09-22T15:14:32.686Z,12.20
2018-09-22T15:17:01.147Z,12.20
2018-09-22T15:19:29.618Z,12.20
2018-09-22T15:21:58.087Z,12.20
2018-09-22T15:24:26.553Z,12.20
2018-09-22T15:26:55.018Z,12.30
2018-09-22T15:29:23.582Z,12.20
2018-09-22T15:31:52.044Z,12.20
2018-09-22T15:34:20.516Z,12.30
2018-09-22T15:36:48.998Z,12.20
2018-09-22T15:39:17.451Z,12.20
2018-09-22T15:41:45.903Z,12.10
2018-09-22T15:44:14.363Z,12.10
2018-09-22T15:46:42.822Z,12.10
2018-09-22T15:49:11.286Z,12.10
2018-09-22T15:51:39.754Z,12.10
2018-09-22T15:54:08.201Z,12.10
2018-09-22T15:56:36.682Z,12.10
2018-09-22T15:59:05.166Z,12.10
2018-09-22T16:01:33.638Z,12.10
2018-09-22T16:04:02.102Z,12.10
2018-09-22T16:06:30.575Z,12.10
2018-09-22T16:08:59.132Z,12.00
2018-09-22T16:11:27.516Z,12.00
2018-09-22T16:13:55.966Z,11.90
2018-09-22T16:16:24.427Z,12.00
2018-09-22T16:18:52.998Z,12.00
2018-09-22T16:21:21.458Z,12.00
2018-09-22T16:23:49.913Z,12.00
2018-09-22T16:26:18.383Z,12.00
2018-09-22T16:28:46.847Z,11.90
2018-09-22T16:31:15.426Z,11.90
2018-09-22T16:33:43.875Z,11.90
2018-09-22T16:36:12.342Z,11.90
2018-09-22T16:38:40.987Z,11.90
2018-09-22T16:41:09.537Z,11.90
2018-09-22T16:43:37.991Z,11.90
2018-09-22T16:46:06.525Z,11.80
2018-09-22T16:48:34.997Z,11.80
2018-09-22T16:51:03.483Z,11.80
2018-09-22T16:53:31.982Z,11.80
2018-09-22T16:56:01.871Z,11.80
2018-09-22T16:58:30.392Z,11.80
2018-09-22T17:00:58.878Z,11.70
2018-09-22T17:03:27.427Z,11.80
2018-09-22T17:05:55.846Z,11.70
2018-09-22T17:08:24.303Z,11.70
2018-09-22T17:10:52.769Z,11.70
2018-09-22T17:13:21.227Z,11.70
2018-09-22T17:15:49.680Z,11.70
2018-09-22T17:18:18.159Z,11.70
2018-09-22T17:20:46.626Z,11.60
2018-09-22T17:23:15.098Z,11.70
2018-09-22T17:25:43.569Z,11.70
2018-09-22T17:28:12.040Z,11.60
2018-09-22T17:30:40.510Z,11.70
2018-09-22T17:33:09.050Z,11.70
2018-09-22T17:35:37.524Z,11.70
2018-09-22T17:38:06.147Z,11.70
2018-09-22T17:40:34.615Z,11.70
2018-09-22T17:43:03.083Z,11.70
2018-09-22T17:45:31.690Z,11.70
2018-09-22T17:48:00.171Z,11.70
2018-09-22T17:50:28.651Z,11.70
2018-09-22T17:52:57.143Z,11.70
2018-09-22T17:55:25.615Z,11.70
2018-09-22T17:57:54.227Z,11.70
2018-09-22T18:00:22.770Z,11.70
2018-09-22T18:02:51.345Z,11.60
2018-09-22T18:05:19.869Z,11.60
2018-09-22T18:07:48.325Z,11.60
2018-09-22T18:10:16.790Z,11.60
2018-09-22T18:12:45.262Z,11.60
2018-09-22T18:15:13.730Z,11.60
2018-09-22T18:17:42.207Z,11.60
2018-09-22T18:20:10.731Z,11.60
2018-09-22T18:22:39.203Z,11.60
2018-09-22T18:25:07.763Z,11.60
2018-09-22T18:27:36.274Z,11.50
2018-09-22T18:30:05.350Z,11.50
2018-09-22T18:32:33.827Z,11.50
2018-09-22T18:35:03.178Z,11.40
2018-09-22T18:37:31.766Z,11.50
2018-09-22T18:40:01.081Z,11.60
2018-09-22T18:42:29.555Z,11.60
2018-09-22T18:44:58.035Z,11.60
2018-09-22T18:47:27.301Z,11.60
2018-09-22T18:49:56.170Z,11.50
2018-09-22T18:52:24.691Z,11.60
2018-09-22T18:54:53.774Z,11.50
2018-09-22T18:57:22.239Z,11.50
2018-09-22T18:59:50.890Z,11.50
2018-09-22T19:02:19.426Z,11.50
2018-09-22T19:04:48.553Z,11.60
2018-09-22T19:07:17.059Z,11.60
2018-09-22T19:09:45.882Z,11.60
2018-09-22T19:12:14.390Z,11.60
2018-09-22T19:14:53.194Z,11.60
2018-09-22T19:17:27.601Z,11.60
2018-09-22T19:20:59.577Z,11.60
2018-09-22T19:24:01.782Z,11.60
2018-09-22T19:26:34.071Z,11.60
2018-09-22T19:29:07.102Z,11.60
2018-09-22T19:31:39.035Z,11.70
2018-09-22T19:34:12.718Z,11.70
2018-09-22T19:37:47.935Z,11.70
2018-09-22T19:40:27.379Z,11.70
2018-09-22T19:43:01.221Z,11.70
2018-09-22T19:45:33.182Z,11.70
2018-09-22T19:48:13.049Z,11.70
2018-09-22T19:50:49.220Z,11.60
2018-09-22T19:53:17.674Z,11.60
2018-09-22T19:55:47.120Z,11.70
2018-09-22T19:58:15.611Z,11.60
2018-09-22T20:00:44.085Z,11.60
2018-09-22T20:03:12.558Z,11.60
2018-09-22T20:05:41.047Z,11.60
2018-09-22T20:08:09.582Z,11.60
2018-09-22T20:10:38.062Z,11.60
2018-09-22T20:13:06.564Z,11.60
2018-09-22T20:15:35.018Z,11.60
2018-09-22T20:18:03.552Z,11.60
2018-09-22T20:20:32.075Z,11.60
2018-09-22T20:23:00.554Z,11.60
2018-09-22T20:25:29.040Z,11.70
2018-09-22T20:27:57.519Z,11.70
2018-09-22T20:30:26.066Z,11.70
2018-09-22T20:32:54.498Z,11.70
2018-09-22T20:35:23.879Z,11.70
2018-09-22T20:37:52.329Z,11.70
2018-09-22T20:40:20.788Z,11.60
2018-09-22T20:42:49.263Z,11.60
2018-09-22T20:45:17.724Z,11.70
2018-09-22T20:47:46.202Z,11.70
2018-09-22T20:50:14.742Z,11.60
2018-09-22T20:52:43.247Z,11.60
2018-09-22T20:55:11.759Z,11.70
2018-09-22T20:57:40.229Z,11.70
2018-09-22T21:00:09.662Z,11.60
2018-09-22T21:02:38.458Z,11.60
2018-09-22T21:05:07.011Z,11.60
2018-09-22T21:07:35.927Z,11.60
2018-09-22T21:10:04.522Z,11.60
2018-09-22T21:12:33.008Z,11.70
2018-09-22T21:15:01.493Z,11.70
2018-09-22T21:17:29.971Z,11.70
2018-09-22T21:19:58.444Z,11.60
2018-09-22T21:22:26.910Z,11.70
2018-09-22T21:24:55.398Z,11.60
2018-09-22T21:27:23.859Z,11.60
2018-09-22T21:29:52.319Z,11.60
2018-09-22T21:32:20.798Z,11.60
2018-09-22T21:34:49.274Z,11.60
2018-09-22T21:37:17.803Z,11.50
2018-09-22T21:39:46.276Z,11.50
2018-09-22T21:42:14.763Z,11.50
2018-09-22T21:44:43.255Z,11.50
2018-09-22T21:47:11.765Z,11.50
2018-09-22T21:49:40.209Z,11.50
2018-09-22T21:52:08.671Z,11.50
2018-09-22T21:54:37.139Z,11.60
2018-09-22T21:57:05.619Z,11.50
2018-09-22T21:59:34.082Z,11.50
2018-09-22T22:02:02.547Z,11.50
2018-09-22T22:04:31.019Z,11.50
2018-09-22T22:06:59.492Z,11.60
2018-09-22T22:09:27.963Z,11.60
2018-09-22T22:11:56.435Z,11.60
2018-09-22T22:14:24.944Z,11.60
2018-09-22T22:16:53.398Z,11.60
2018-09-22T22:19:21.892Z,11.60
2018-09-22T22:21:50.358Z,11.60
2018-09-22T22:24:18.830Z,11.60
2018-09-22T22:26:47.302Z,11.60
2018-09-22T22:29:15.766Z,11.60
2018-09-22T22:31:44.231Z,11.60
2018-09-22T22:34:12.691Z,11.60
2018-09-22T22:36:41.157Z,11.60
2018-09-22T22:39:09.626Z,11.60
2018-09-22T22:41:38.087Z,11.60
2018-09-22T22:44:06.641Z,11.60
2018-09-22T22:46:35.106Z,11.60
2018-09-22T22:49:03.579Z,11.60
2018-09-22T22:51:32.051Z,11.50
2018-09-22T22:54:00.524Z,11.50
2018-09-22T22:56:28.982Z,11.50
2018-09-22T22:58:57.443Z,11.50
2018-09-22T23:01:25.960Z,11.50
2018-09-22T23:03:54.418Z,11.60
2018-09-22T23:06:22.883Z,11.60
2018-09-22T23:08:51.338Z,11.60
2018-09-22T23:11:19.823Z,11.50
2018-09-22T23:13:48.286Z,11.50
2018-09-22T23:16:16.743Z,11.60
2018-09-22T23:18:45.216Z,11.50
2018-09-22T23:21:13.690Z,11.60
2018-09-22T23:23:42.159Z,11.60
2018-09-22T23:26:11.171Z,11.60
2018-09-22T23:28:39.654Z,11.60
2018-09-22T23:31:08.143Z,11.60
2018-09-22T23:33:36.619Z,11.60
2018-09-22T23:36:05.115Z,11.60
2018-09-22T23:38:33.669Z,11.60
2018-09-22T23:41:02.127Z,11.70
2018-09-22T23:43:30.626Z,11.70
2018-09-22T23:45:59.089Z,11.60
2018-09-22T23:48:27.579Z,11.70
2018-09-22T23:50:56.058Z,11.70
2018-09-22T23:53:24.526Z,11.70
2018-09-22T23:55:52.996Z,11.70
2018-09-22T23:58:21.462Z,11.70
